sensor_id;sensor_type;location;lat;lon;timestamp;pressure;altitude;pressure_sealevel;temperature;humidity
15444;BME280;7822;48.146;11.576;2023-09-19T00:01:41;94875.19;;;19.58;84.92
15444;BME280;7822;48.146;11.576;2023-09-19T00:04:11;94868.06;;;19.59;84.78
15444;BME280;7822;48.146;11.576;2023-09-19T00:06:38;94863.81;;;19.58;84.79
15444;BME280;7822;48.146;11.576;2023-09-19T00:09:06;94851.50;;;19.58;84.85
15444;BME280;7822;48.146;11.576;2023-09-19T00:11:36;94854.13;;;19.58;84.76
15444;BME280;7822;48.146;11.576;2023-09-19T00:14:04;94848.03;;;19.58;85.19
15444;BME280;7822;48.146;11.576;2023-09-19T00:16:35;94857.75;;;19.57;84.82
15444;BME280;7822;48.146;11.576;2023-09-19T00:19:04;94861.19;;;19.58;85.07
15444;BME280;7822;48.146;11.576;2023-09-19T00:21:35;94871.72;;;19.58;85.09
15444;BME280;7822;48.146;11.576;2023-09-19T00:24:03;94865.63;;;19.57;84.89
15444;BME280;7822;48.146;11.576;2023-09-19T00:26:32;94868.06;;;19.59;85.01
15444;BME280;7822;48.146;11.576;2023-09-19T00:29:00;94875.19;;;19.58;84.91
15444;BME280;7822;48.146;11.576;2023-09-19T00:31:34;94879.63;;;19.58;85.15
15444;BME280;7822;48.146;11.576;2023-09-19T00:34:05;94872.72;;;19.57;84.96
15444;BME280;7822;48.146;11.576;2023-09-19T00:36:33;94875.34;;;19.57;85.14
15444;BME280;7822;48.146;11.576;2023-09-19T00:39:00;94881.44;;;19.57;85.00
15444;BME280;7822;48.146;11.576;2023-09-19T00:41:29;94877.97;;;19.57;85.04
15444;BME280;7822;48.146;11.576;2023-09-19T00:43:56;94879.63;;;19.58;85.11
15444;BME280;7822;48.146;11.576;2023-09-19T00:46:26;94879.63;;;19.58;85.02
15444;BME280;7822;48.146;11.576;2023-09-19T00:48:53;94879.63;;;19.58;85.15
15444;BME280;7822;48.146;11.576;2023-09-19T00:51:22;94877.00;;;19.58;84.96
15444;BME280;7822;48.146;11.576;2023-09-19T00:53:51;94881.44;;;19.57;85.08
15444;BME280;7822;48.146;11.576;2023-09-19T00:56:19;94884.06;;;19.57;85.03
15444;BME280;7822;48.146;11.576;2023-09-19T00:58:47;94890.16;;;19.58;84.83
15444;BME280;7822;48.146;11.576;2023-09-19T01:01:14;94887.50;;;19.58;84.79
15444;BME280;7822;48.146;11.576;2023-09-19T01:03:43;94890.16;;;19.58;84.85
15444;BME280;7822;48.146;11.576;2023-09-19T01:06:11;94885.72;;;19.58;85.03
15444;BME280;7822;48.146;11.576;2023-09-19T01:08:40;94898.84;;;19.58;85.05
15444;BME280;7822;48.146;11.576;2023-09-19T01:11:10;94899.84;;;19.57;84.80
15444;BME280;7822;48.146;11.576;2023-09-19T01:13:44;94911.19;;;19.58;84.83
15444;BME280;7822;48.146;11.576;2023-09-19T01:16:17;94913.81;;;19.58;84.65
15444;BME280;7822;48.146;11.576;2023-09-19T01:18:49;94912.03;;;19.58;84.79
15444;BME280;7822;48.146;11.576;2023-09-19T01:21:21;94912.03;;;19.58;84.92
15444;BME280;7822;48.146;11.576;2023-09-19T01:24:04;94905.09;;;19.57;84.89
15444;BME280;7822;48.146;11.576;2023-09-19T01:26:39;94918.28;;;19.57;84.76
15444;BME280;7822;48.146;11.576;2023-09-19T01:29:17;94915.63;;;19.57;84.82
15444;BME280;7822;48.146;11.576;2023-09-19T01:31:57;94925.19;;;19.58;85.01
15444;BME280;7822;48.146;11.576;2023-09-19T01:34:27;94925.34;;;19.57;85.05
15444;BME280;7822;48.146;11.576;2023-09-19T01:37:10;94927.97;;;19.57;85.10
15444;BME280;7822;48.146;11.576;2023-09-19T01:39:38;94930.59;;;19.57;84.93
15444;BME280;7822;48.146;11.576;2023-09-19T01:42:06;94941.94;;;19.57;85.09
15444;BME280;7822;48.146;11.576;2023-09-19T01:44:39;94942.94;;;19.56;84.76
15444;BME280;7822;48.146;11.576;2023-09-19T01:47:11;94946.41;;;19.57;84.89
15444;BME280;7822;48.146;11.576;2023-09-19T01:49:44;94949.03;;;19.57;84.64
15444;BME280;7822;48.146;11.576;2023-09-19T01:52:17;94949.03;;;19.57;84.95
15444;BME280;7822;48.146;11.576;2023-09-19T01:54:50;94946.41;;;19.57;85.05
15444;BME280;7822;48.146;11.576;2023-09-19T01:57:20;94935.03;;;19.56;85.09
15444;BME280;7822;48.146;11.576;2023-09-19T01:59:50;94937.69;;;19.56;84.76
15444;BME280;7822;48.146;11.576;2023-09-19T02:02:21;94937.69;;;19.56;84.82
15444;BME280;7822;48.146;11.576;2023-09-19T02:04:50;94945.75;;;19.55;84.98
15444;BME280;7822;48.146;11.576;2023-09-19T02:07:17;94945.56;;;19.56;85.08
15444;BME280;7822;48.146;11.576;2023-09-19T02:09:45;94943.75;;;19.57;84.86
15444;BME280;7822;48.146;11.576;2023-09-19T02:12:14;94939.50;;;19.56;84.88
15444;BME280;7822;48.146;11.576;2023-09-19T02:14:42;94943.97;;;19.55;84.73
15444;BME280;7822;48.146;11.576;2023-09-19T02:17:09;94938.69;;;19.55;84.94
15444;BME280;7822;48.146;11.576;2023-09-19T02:19:39;94936.88;;;19.56;85.14
15444;BME280;7822;48.146;11.576;2023-09-19T02:22:07;94934.25;;;19.56;84.73
15444;BME280;7822;48.146;11.576;2023-09-19T02:24:36;94940.31;;;19.56;84.75
15444;BME280;7822;48.146;11.576;2023-09-19T02:27:04;94943.75;;;19.57;84.94
15444;BME280;7822;48.146;11.576;2023-09-19T02:29:33;94943.75;;;19.57;84.99
15444;BME280;7822;48.146;11.576;2023-09-19T02:32:01;94942.94;;;19.56;85.13
15444;BME280;7822;48.146;11.576;2023-09-19T02:34:30;94946.41;;;19.57;84.86
15444;BME280;7822;48.146;11.576;2023-09-19T02:37:00;94951.66;;;19.57;85.13
15444;BME280;7822;48.146;11.576;2023-09-19T02:39:27;94946.59;;;19.55;84.80
15444;BME280;7822;48.146;11.576;2023-09-19T02:41:55;94946.41;;;19.57;84.82
15444;BME280;7822;48.146;11.576;2023-09-19T02:44:23;94950.03;;;19.56;84.93
15444;BME280;7822;48.146;11.576;2023-09-19T02:46:51;94956.09;;;19.56;84.96
15444;BME280;7822;48.146;11.576;2023-09-19T02:49:18;94956.09;;;19.56;85.00
15444;BME280;7822;48.146;11.576;2023-09-19T02:51:46;94958.72;;;19.56;85.10
15444;BME280;7822;48.146;11.576;2023-09-19T02:54:15;94957.13;;;19.55;84.87
15444;BME280;7822;48.146;11.576;2023-09-19T02:56:43;94958.56;;;19.58;84.82
15444;BME280;7822;48.146;11.576;2023-09-19T02:59:11;94959.56;;;19.57;84.83
15444;BME280;7822;48.146;11.576;2023-09-19T03:01:39;94961.34;;;19.56;85.00
15444;BME280;7822;48.146;11.576;2023-09-19T03:04:06;94955.31;;;19.56;84.84
15444;BME280;7822;48.146;11.576;2023-09-19T03:06:34;94954.28;;;19.57;84.81
15444;BME280;7822;48.146;11.576;2023-09-19T03:09:02;94957.94;;;19.56;84.84
15444;BME280;7822;48.146;11.576;2023-09-19T03:11:33;94950.84;;;19.56;84.82
15444;BME280;7822;48.146;11.576;2023-09-19T03:14:01;94952.66;;;19.56;84.89
15444;BME280;7822;48.146;11.576;2023-09-19T03:16:30;94957.94;;;19.56;85.06
15444;BME280;7822;48.146;11.576;2023-09-19T03:18:58;94956.28;;;19.55;84.67
15444;BME280;7822;48.146;11.576;2023-09-19T03:21:26;94952.66;;;19.56;84.97
15444;BME280;7822;48.146;11.576;2023-09-19T03:23:55;94959.75;;;19.55;84.99
15444;BME280;7822;48.146;11.576;2023-09-19T03:26:23;94959.75;;;19.55;85.07
15444;BME280;7822;48.146;11.576;2023-09-19T03:28:54;94961.56;;;19.55;84.82
15444;BME280;7822;48.146;11.576;2023-09-19T03:31:21;94957.94;;;19.56;85.07
15444;BME280;7822;48.146;11.576;2023-09-19T03:33:49;94957.13;;;19.55;84.90
15444;BME280;7822;48.146;11.576;2023-09-19T03:36:17;94962.38;;;19.55;84.90
15444;BME280;7822;48.146;11.576;2023-09-19T03:38:45;94954.47;;;19.55;84.92
15444;BME280;7822;48.146;11.576;2023-09-19T03:41:12;94958.09;;;19.54;84.83
15444;BME280;7822;48.146;11.576;2023-09-19T03:43:40;94952.84;;;19.54;84.88
15444;BME280;7822;48.146;11.576;2023-09-19T03:46:10;94958.09;;;19.54;85.04
15444;BME280;7822;48.146;11.576;2023-09-19T03:48:39;94952.84;;;19.54;84.97
15444;BME280;7822;48.146;11.576;2023-09-19T03:51:06;94957.31;;;19.54;84.79
15444;BME280;7822;48.146;11.576;2023-09-19T03:53:34;94960.72;;;19.54;84.92
15444;BME280;7822;48.146;11.576;2023-09-19T03:56:01;94968.63;;;19.54;84.89
15444;BME280;7822;48.146;11.576;2023-09-19T03:58:29;94964.19;;;19.55;84.94
15444;BME280;7822;48.146;11.576;2023-09-19T04:00:56;94958.09;;;19.54;84.81
15444;BME280;7822;48.146;11.576;2023-09-19T04:03:25;94969.44;;;19.55;85.06
15444;BME280;7822;48.146;11.576;2023-09-19T04:06:01;94969.44;;;19.55;84.96
15444;BME280;7822;48.146;11.576;2023-09-19T04:08:29;94969.44;;;19.55;84.80
15444;BME280;7822;48.146;11.576;2023-09-19T04:10:56;94969.44;;;19.55;84.96
15444;BME280;7822;48.146;11.576;2023-09-19T04:13:24;94979.16;;;19.54;84.81
15444;BME280;7822;48.146;11.576;2023-09-19T04:15:51;94983.44;;;19.55;84.69
15444;BME280;7822;48.146;11.576;2023-09-19T04:18:19;94984.25;;;19.56;85.01
15444;BME280;7822;48.146;11.576;2023-09-19T04:20:49;94996.59;;;19.55;84.99
15444;BME280;7822;48.146;11.576;2023-09-19T04:23:17;94991.31;;;19.55;84.83
15444;BME280;7822;48.146;11.576;2023-09-19T04:25:46;94986.06;;;19.55;85.07
15444;BME280;7822;48.146;11.576;2023-09-19T04:28:14;94992.94;;;19.56;84.91
15444;BME280;7822;48.146;11.576;2023-09-19T04:30:42;94992.16;;;19.56;85.01
15444;BME280;7822;48.146;11.576;2023-09-19T04:33:10;95000.03;;;19.56;84.73
15444;BME280;7822;48.146;11.576;2023-09-19T04:35:40;95008.72;;;19.56;84.67
15444;BME280;7822;48.146;11.576;2023-09-19T04:38:10;95000.84;;;19.56;84.95
15444;BME280;7822;48.146;11.576;2023-09-19T04:40:38;95009.56;;;19.57;84.67
15444;BME280;7822;48.146;11.576;2023-09-19T04:43:06;95011.34;;;19.56;85.05
15444;BME280;7822;48.146;11.576;2023-09-19T04:45:33;95011.34;;;19.56;84.87
15444;BME280;7822;48.146;11.576;2023-09-19T04:48:01;95012.38;;;19.55;84.84
15444;BME280;7822;48.146;11.576;2023-09-19T04:50:30;95010.56;;;19.56;84.93
15444;BME280;7822;48.146;11.576;2023-09-19T04:52:57;95010.56;;;19.56;84.96
15444;BME280;7822;48.146;11.576;2023-09-19T04:55:28;95020.28;;;19.55;85.04
15444;BME280;7822;48.146;11.576;2023-09-19T04:57:56;95024.50;;;19.56;84.89
15444;BME280;7822;48.146;11.576;2023-09-19T05:00:24;95023.72;;;19.56;85.13
15444;BME280;7822;48.146;11.576;2023-09-19T05:02:54;95028.16;;;19.55;84.91
15444;BME280;7822;48.146;11.576;2023-09-19T05:05:23;95034.25;;;19.56;85.09
15444;BME280;7822;48.146;11.576;2023-09-19T05:07:52;95039.66;;;19.54;85.14
15444;BME280;7822;48.146;11.576;2023-09-19T05:10:21;95041.31;;;19.55;84.72
15444;BME280;7822;48.146;11.576;2023-09-19T05:12:50;95044.94;;;19.54;85.09
15444;BME280;7822;48.146;11.576;2023-09-19T05:15:19;95046.59;;;19.55;85.09
15444;BME280;7822;48.146;11.576;2023-09-19T05:17:47;95054.47;;;19.55;85.04
15444;BME280;7822;48.146;11.576;2023-09-19T05:20:15;95046.59;;;19.55;85.07
15444;BME280;7822;48.146;11.576;2023-09-19T05:22:56;95058.72;;;19.56;84.88
15444;BME280;7822;48.146;11.576;2023-09-19T05:25:24;95052.66;;;19.56;84.71
15444;BME280;7822;48.146;11.576;2023-09-19T05:27:57;95054.47;;;19.55;84.83
15444;BME280;7822;48.146;11.576;2023-09-19T05:30:25;95061.34;;;19.56;84.68
15444;BME280;7822;48.146;11.576;2023-09-19T05:32:53;95072.72;;;19.57;84.78
15444;BME280;7822;48.146;11.576;2023-09-19T05:35:22;95071.72;;;19.58;84.83
15444;BME280;7822;48.146;11.576;2023-09-19T05:37:50;95070.91;;;19.57;84.73
15444;BME280;7822;48.146;11.576;2023-09-19T05:40:18;95067.28;;;19.58;84.81
15444;BME280;7822;48.146;11.576;2023-09-19T05:42:46;95076.78;;;19.59;85.05
15444;BME280;7822;48.146;11.576;2023-09-19T05:45:15;95077.81;;;19.58;84.92
15444;BME280;7822;48.146;11.576;2023-09-19T05:47:48;95076.78;;;19.59;84.96
15444;BME280;7822;48.146;11.576;2023-09-19T05:50:16;95081.22;;;19.59;84.73
15444;BME280;7822;48.146;11.576;2023-09-19T05:52:47;95077.81;;;19.58;84.63
15444;BME280;7822;48.146;11.576;2023-09-19T05:55:18;95078.59;;;19.59;84.74
15444;BME280;7822;48.146;11.576;2023-09-19T05:57:49;95082.06;;;19.59;84.91
15444;BME280;7822;48.146;11.576;2023-09-19T06:00:18;95075.19;;;19.58;85.00
15444;BME280;7822;48.146;11.576;2023-09-19T06:02:49;95079.44;;;19.59;85.05
15444;BME280;7822;48.146;11.576;2023-09-19T06:05:18;95078.44;;;19.60;84.79
15444;BME280;7822;48.146;11.576;2023-09-19T06:07:46;95075.81;;;19.60;84.86
15444;BME280;7822;48.146;11.576;2023-09-19T06:10:13;95078.44;;;19.60;84.82
15444;BME280;7822;48.146;11.576;2023-09-19T06:12:41;95083.72;;;19.60;85.03
15444;BME280;7822;48.146;11.576;2023-09-19T06:15:10;95088.16;;;19.60;84.76
15444;BME280;7822;48.146;11.576;2023-09-19T06:17:44;95091.59;;;19.60;85.02
15444;BME280;7822;48.146;11.576;2023-09-19T06:20:13;95091.59;;;19.60;84.91
15444;BME280;7822;48.146;11.576;2023-09-19T06:22:41;95097.66;;;19.61;84.85
15444;BME280;7822;48.146;11.576;2023-09-19T06:25:09;95092.41;;;19.61;84.81
15444;BME280;7822;48.146;11.576;2023-09-19T06:27:38;95091.59;;;19.60;84.73
15444;BME280;7822;48.146;11.576;2023-09-19T06:30:08;95090.78;;;19.60;84.86
15444;BME280;7822;48.146;11.576;2023-09-19T06:32:35;95098.69;;;19.60;84.71
15444;BME280;7822;48.146;11.576;2023-09-19T06:35:05;95094.22;;;19.60;84.87
15444;BME280;7822;48.146;11.576;2023-09-19T06:37:35;95095.22;;;19.59;85.06
15444;BME280;7822;48.146;11.576;2023-09-19T06:40:05;95098.69;;;19.60;85.03
15444;BME280;7822;48.146;11.576;2023-09-19T06:42:34;95111.00;;;19.59;84.74
15444;BME280;7822;48.146;11.576;2023-09-19T06:45:04;95112.66;;;19.60;85.00
15444;BME280;7822;48.146;11.576;2023-09-19T06:47:31;95115.28;;;19.60;84.91
15444;BME280;7822;48.146;11.576;2023-09-19T06:49:59;95118.91;;;19.59;84.88
15444;BME280;7822;48.146;11.576;2023-09-19T06:52:30;95116.28;;;19.59;84.86
15444;BME280;7822;48.146;11.576;2023-09-19T06:54:58;95125.00;;;19.60;84.96
15444;BME280;7822;48.146;11.576;2023-09-19T06:57:26;95120.72;;;19.59;85.13
15444;BME280;7822;48.146;11.576;2023-09-19T06:59:53;95119.72;;;19.60;85.17
15444;BME280;7822;48.146;11.576;2023-09-19T07:02:21;95125.00;;;19.60;85.08
15444;BME280;7822;48.146;11.576;2023-09-19T07:04:48;95132.88;;;19.60;85.04
15444;BME280;7822;48.146;11.576;2023-09-19T07:07:16;95129.63;;;19.58;84.98
15444;BME280;7822;48.146;11.576;2023-09-19T07:09:45;95135.72;;;19.58;84.91
15444;BME280;7822;48.146;11.576;2023-09-19T07:12:15;95133.88;;;19.59;84.85
15444;BME280;7822;48.146;11.576;2023-09-19T07:14:43;95131.25;;;19.59;85.07
15444;BME280;7822;48.146;11.576;2023-09-19T07:17:10;95147.84;;;19.59;85.25
15444;BME280;7822;48.146;11.576;2023-09-19T07:19:39;95143.59;;;19.58;84.74
15444;BME280;7822;48.146;11.576;2023-09-19T07:22:06;95139.97;;;19.59;85.08
15444;BME280;7822;48.146;11.576;2023-09-19T07:24:34;95147.03;;;19.59;84.96
15444;BME280;7822;48.146;11.576;2023-09-19T07:27:04;95149.66;;;19.59;85.14
15444;BME280;7822;48.146;11.576;2023-09-19T07:29:32;95145.22;;;19.59;85.08
15444;BME280;7822;48.146;11.576;2023-09-19T07:31:59;95143.41;;;19.60;84.84
15444;BME280;7822;48.146;11.576;2023-09-19T07:34:27;95148.69;;;19.60;85.00
15444;BME280;7822;48.146;11.576;2023-09-19T07:36:55;95145.22;;;19.59;84.94
15444;BME280;7822;48.146;11.576;2023-09-19T07:39:23;95147.03;;;19.59;85.20
15444;BME280;7822;48.146;11.576;2023-09-19T07:41:50;95144.41;;;19.59;85.18
15444;BME280;7822;48.146;11.576;2023-09-19T07:44:19;95148.69;;;19.60;85.20
15444;BME280;7822;48.146;11.576;2023-09-19T07:46:47;95151.31;;;19.60;85.20
15444;BME280;7822;48.146;11.576;2023-09-19T07:49:17;95154.75;;;19.60;85.16
15444;BME280;7822;48.146;11.576;2023-09-19T07:51:45;95147.03;;;19.59;84.90
15444;BME280;7822;48.146;11.576;2023-09-19T07:54:13;95148.69;;;19.60;85.27
15444;BME280;7822;48.146;11.576;2023-09-19T07:56:41;95151.31;;;19.60;84.92
15444;BME280;7822;48.146;11.576;2023-09-19T07:59:09;95155.75;;;19.59;84.94
15444;BME280;7822;48.146;11.576;2023-09-19T08:01:39;95153.13;;;19.59;84.89
15444;BME280;7822;48.146;11.576;2023-09-19T08:04:07;95156.75;;;19.58;84.88
15444;BME280;7822;48.146;11.576;2023-09-19T08:06:35;95157.56;;;19.59;85.17
15444;BME280;7822;48.146;11.576;2023-09-19T08:09:04;95159.19;;;19.60;85.20
15444;BME280;7822;48.146;11.576;2023-09-19T08:11:37;95156.75;;;19.58;85.09
15444;BME280;7822;48.146;11.576;2023-09-19T08:14:05;95157.56;;;19.59;85.05
15444;BME280;7822;48.146;11.576;2023-09-19T08:16:34;95154.91;;;19.59;84.88
15444;BME280;7822;48.146;11.576;2023-09-19T08:19:04;95154.91;;;19.59;85.18
15444;BME280;7822;48.146;11.576;2023-09-19T08:21:32;95156.75;;;19.58;85.10
15444;BME280;7822;48.146;11.576;2023-09-19T08:23:59;95154.13;;;19.58;84.89
15444;BME280;7822;48.146;11.576;2023-09-19T08:26:28;95155.94;;;19.58;85.08
15444;BME280;7822;48.146;11.576;2023-09-19T08:28:55;95158.56;;;19.58;85.14
15444;BME280;7822;48.146;11.576;2023-09-19T08:31:23;95149.03;;;19.57;85.20
15444;BME280;7822;48.146;11.576;2023-09-19T08:33:52;95162.03;;;19.58;85.11
15444;BME280;7822;48.146;11.576;2023-09-19T08:36:23;95156.75;;;19.58;85.02
15444;BME280;7822;48.146;11.576;2023-09-19T08:38:51;95159.56;;;19.57;85.13
15444;BME280;7822;48.146;11.576;2023-09-19T08:41:18;95155.13;;;19.57;85.15
15444;BME280;7822;48.146;11.576;2023-09-19T08:43:46;95156.09;;;19.56;85.14
15444;BME280;7822;48.146;11.576;2023-09-19T08:46:15;95163.84;;;19.58;85.37
15444;BME280;7822;48.146;11.576;2023-09-19T08:48:45;95166.47;;;19.58;85.41
15444;BME280;7822;48.146;11.576;2023-09-19T08:51:17;95162.19;;;19.57;85.05
15444;BME280;7822;48.146;11.576;2023-09-19T08:53:50;95165.63;;;19.57;85.31
15444;BME280;7822;48.146;11.576;2023-09-19T08:56:18;95164.81;;;19.57;85.40
15444;BME280;7822;48.146;11.576;2023-09-19T08:58:47;95163.00;;;19.57;85.09
15444;BME280;7822;48.146;11.576;2023-09-19T09:01:15;95169.91;;;19.58;85.31
15444;BME280;7822;48.146;11.576;2023-09-19T09:03:43;95169.09;;;19.58;84.94
15444;BME280;7822;48.146;11.576;2023-09-19T09:06:15;95164.66;;;19.58;85.28
15444;BME280;7822;48.146;11.576;2023-09-19T09:08:44;95163.00;;;19.57;85.24
15444;BME280;7822;48.146;11.576;2023-09-19T09:11:13;95159.41;;;19.58;85.20
15444;BME280;7822;48.146;11.576;2023-09-19T09:13:43;95175.19;;;19.58;85.20
15444;BME280;7822;48.146;11.576;2023-09-19T09:16:11;95175.97;;;19.59;85.10
15444;BME280;7822;48.146;11.576;2023-09-19T09:18:38;95171.72;;;19.58;85.20
15444;BME280;7822;48.146;11.576;2023-09-19T09:21:06;95181.25;;;19.59;85.13
15444;BME280;7822;48.146;11.576;2023-09-19T09:23:37;95180.44;;;19.58;84.94
15444;BME280;7822;48.146;11.576;2023-09-19T09:26:05;95177.00;;;19.58;85.27
15444;BME280;7822;48.146;11.576;2023-09-19T09:28:34;95169.91;;;19.58;85.18
15444;BME280;7822;48.146;11.576;2023-09-19T09:31:05;95170.72;;;19.59;85.26
15444;BME280;7822;48.146;11.576;2023-09-19T09:33:36;95169.91;;;19.58;85.03
15444;BME280;7822;48.146;11.576;2023-09-19T09:36:04;95177.81;;;19.58;85.26
15444;BME280;7822;48.146;11.576;2023-09-19T09:38:42;95168.28;;;19.57;85.38
15444;BME280;7822;48.146;11.576;2023-09-19T09:41:11;95173.53;;;19.57;85.33
15444;BME280;7822;48.146;11.576;2023-09-19T09:43:43;95172.56;;;19.58;85.28
15444;BME280;7822;48.146;11.576;2023-09-19T09:46:14;95174.34;;;19.58;85.31
15444;BME280;7822;48.146;11.576;2023-09-19T09:49:00;95183.09;;;19.58;84.96
15444;BME280;7822;48.146;11.576;2023-09-19T09:51:58;95180.59;;;19.57;85.32
15444;BME280;7822;48.146;11.576;2023-09-19T09:54:27;95179.63;;;19.58;85.10
15444;BME280;7822;48.146;11.576;2023-09-19T09:57:01;95184.06;;;19.57;85.04
15444;BME280;7822;48.146;11.576;2023-09-19T09:59:48;95183.25;;;19.57;85.29
15444;BME280;7822;48.146;11.576;2023-09-19T10:02:17;95184.06;;;19.57;85.39
15444;BME280;7822;48.146;11.576;2023-09-19T10:04:51;95189.31;;;19.57;85.31
15444;BME280;7822;48.146;11.576;2023-09-19T10:07:26;95186.88;;;19.56;85.49
15444;BME280;7822;48.146;11.576;2023-09-19T10:09:57;95185.88;;;19.57;85.35
15444;BME280;7822;48.146;11.576;2023-09-19T10:12:31;95179.78;;;19.56;85.20
15444;BME280;7822;48.146;11.576;2023-09-19T10:15:00;95189.31;;;19.57;85.32
15444;BME280;7822;48.146;11.576;2023-09-19T10:17:30;95194.59;;;19.57;85.09
15444;BME280;7822;48.146;11.576;2023-09-19T10:19:58;95185.03;;;19.56;85.22
15444;BME280;7822;48.146;11.576;2023-09-19T10:22:32;95187.88;;;19.55;85.39
15444;BME280;7822;48.146;11.576;2023-09-19T10:25:02;95186.06;;;19.55;85.40
15444;BME280;7822;48.146;11.576;2023-09-19T10:27:33;95193.75;;;19.57;85.16
15444;BME280;7822;48.146;11.576;2023-09-19T10:30:06;95187.69;;;19.56;85.33
15444;BME280;7822;48.146;11.576;2023-09-19T10:32:35;95192.16;;;19.56;85.39
15444;BME280;7822;48.146;11.576;2023-09-19T10:35:07;95182.41;;;19.56;85.46
15444;BME280;7822;48.146;11.576;2023-09-19T10:37:36;95192.16;;;19.56;85.29
15444;BME280;7822;48.146;11.576;2023-09-19T10:40:05;95181.63;;;19.56;85.47
15444;BME280;7822;48.146;11.576;2023-09-19T10:42:35;95176.34;;;19.56;85.19
15444;BME280;7822;48.146;11.576;2023-09-19T10:45:06;95188.50;;;19.57;85.20
15444;BME280;7822;48.146;11.576;2023-09-19T10:47:39;95191.13;;;19.57;85.18
15444;BME280;7822;48.146;11.576;2023-09-19T10:50:07;95199.84;;;19.57;85.45
15444;BME280;7822;48.146;11.576;2023-09-19T10:52:38;95187.69;;;19.56;85.23
15444;BME280;7822;48.146;11.576;2023-09-19T10:55:08;95179.78;;;19.56;85.39
15444;BME280;7822;48.146;11.576;2023-09-19T10:57:37;95182.41;;;19.56;85.49
15444;BME280;7822;48.146;11.576;2023-09-19T11:00:07;95185.88;;;19.57;85.24
15444;BME280;7822;48.146;11.576;2023-09-19T11:03:16;95181.63;;;19.56;85.05
15444;BME280;7822;48.146;11.576;2023-09-19T11:05:59;95179.78;;;19.56;85.04
15444;BME280;7822;48.146;11.576;2023-09-19T11:08:29;95183.25;;;19.57;85.32
15444;BME280;7822;48.146;11.576;2023-09-19T11:10:58;95187.53;;;19.58;85.42
15444;BME280;7822;48.146;11.576;2023-09-19T11:13:26;95179.78;;;19.56;85.09
15444;BME280;7822;48.146;11.576;2023-09-19T11:18:53;95176.34;;;19.56;85.14
15444;BME280;7822;48.146;11.576;2023-09-19T11:24:32;95185.03;;;19.56;85.40
15444;BME280;7822;48.146;11.576;2023-09-19T11:27:09;95185.03;;;19.56;85.34
15444;BME280;7822;48.146;11.576;2023-09-19T11:29:36;95173.72;;;19.56;85.23
15444;BME280;7822;48.146;11.576;2023-09-19T11:32:05;95179.16;;;19.54;85.43
15444;BME280;7822;48.146;11.576;2023-09-19T11:40:10;95172.91;;;19.55;85.22
15444;BME280;7822;48.146;11.576;2023-09-19T11:42:43;95178.34;;;19.54;85.40
15444;BME280;7822;48.146;11.576;2023-09-19T11:47:58;95186.88;;;19.56;85.35
15444;BME280;7822;48.146;11.576;2023-09-19T11:50:26;95184.41;;;19.54;85.55
15444;BME280;7822;48.146;11.576;2023-09-19T11:52:55;95191.50;;;19.54;85.35
15444;BME280;7822;48.146;11.576;2023-09-19T11:55:24;95183.44;;;19.55;85.36
15444;BME280;7822;48.146;11.576;2023-09-19T11:57:54;95184.41;;;19.54;85.34
15444;BME280;7822;48.146;11.576;2023-09-19T12:00:22;95179.16;;;19.54;85.33
15444;BME280;7822;48.146;11.576;2023-09-19T12:02:50;95167.81;;;19.54;85.04
15444;BME280;7822;48.146;11.576;2023-09-19T12:05:27;95174.72;;;19.55;85.38
15444;BME280;7822;48.146;11.576;2023-09-19T12:07:55;95175.53;;;19.55;85.12
15444;BME280;7822;48.146;11.576;2023-09-19T12:10:24;95172.91;;;19.55;85.38
15444;BME280;7822;48.146;11.576;2023-09-19T12:12:52;95171.25;;;19.54;85.07
15444;BME280;7822;48.146;11.576;2023-09-19T12:15:22;95174.72;;;19.55;85.43
15444;BME280;7822;48.146;11.576;2023-09-19T12:17:54;95173.72;;;19.56;85.40
15444;BME280;7822;48.146;11.576;2023-09-19T12:20:22;95170.28;;;19.55;85.20
15444;BME280;7822;48.146;11.576;2023-09-19T12:22:50;95170.28;;;19.55;85.17
15444;BME280;7822;48.146;11.576;2023-09-19T12:25:17;95172.91;;;19.55;85.14
15444;BME280;7822;48.146;11.576;2023-09-19T12:27:48;95173.72;;;19.56;85.19
15444;BME280;7822;48.146;11.576;2023-09-19T12:30:19;95170.28;;;19.55;85.37
15444;BME280;7822;48.146;11.576;2023-09-19T12:32:53;95168.47;;;19.56;85.26
15444;BME280;7822;48.146;11.576;2023-09-19T12:35:28;95166.63;;;19.56;85.37
15444;BME280;7822;48.146;11.576;2023-09-19T12:37:56;95160.56;;;19.56;85.17
15444;BME280;7822;48.146;11.576;2023-09-19T12:40:25;95157.09;;;19.55;85.41
15444;BME280;7822;48.146;11.576;2023-09-19T12:42:57;95158.72;;;19.56;85.10
15444;BME280;7822;48.146;11.576;2023-09-19T12:45:25;95156.09;;;19.56;85.35
15444;BME280;7822;48.146;11.576;2023-09-19T12:53:26;95156.09;;;19.56;85.04
15444;BME280;7822;48.146;11.576;2023-09-19T12:55:57;95152.66;;;19.56;85.24
15444;BME280;7822;48.146;11.576;2023-09-19T12:58:27;95153.47;;;19.56;85.08
15444;BME280;7822;48.146;11.576;2023-09-19T13:00:56;95145.56;;;19.56;85.14
15444;BME280;7822;48.146;11.576;2023-09-19T13:03:25;95150.84;;;19.56;85.44
15444;BME280;7822;48.146;11.576;2023-09-19T13:05:55;95146.41;;;19.57;84.98
15444;BME280;7822;48.146;11.576;2023-09-19T13:08:24;95155.94;;;19.58;85.37
15444;BME280;7822;48.146;11.576;2023-09-19T13:11:03;95137.50;;;19.58;85.03
15444;BME280;7822;48.146;11.576;2023-09-19T13:13:34;95141.97;;;19.57;85.25
15444;BME280;7822;48.146;11.576;2023-09-19T13:16:03;95140.97;;;19.58;85.26
15444;BME280;7822;48.146;11.576;2023-09-19T13:18:43;95140.97;;;19.58;85.19
15444;BME280;7822;48.146;11.576;2023-09-19T13:21:12;95137.50;;;19.58;85.29
15444;BME280;7822;48.146;11.576;2023-09-19T13:23:51;95140.97;;;19.58;85.26
15444;BME280;7822;48.146;11.576;2023-09-19T13:26:20;95135.72;;;19.58;85.29
15444;BME280;7822;48.146;11.576;2023-09-19T13:28:50;95130.44;;;19.58;85.07
15444;BME280;7822;48.146;11.576;2023-09-19T13:31:18;95140.97;;;19.58;85.34
15444;BME280;7822;48.146;11.576;2023-09-19T13:33:47;95139.31;;;19.57;85.35